sensor_id;sensor_type;location;lat;lon;timestamp;P1;durP1;ratioP1;P2;durP2;ratioP2
18383;SDS011;9318;48.644;9.456;2023-06-24T00:00:49;0.75;;;0.75;;
18383;SDS011;9318;48.644;9.456;2023-06-24T00:03:17;0.80;;;0.80;;
18383;SDS011;9318;48.644;9.456;2023-06-24T00:05:44;0.80;;;0.80;;
18383;SDS011;9318;48.644;9.456;2023-06-24T00:08:14;0.80;;;0.80;;
18383;SDS011;9318;48.644;9.456;2023-06-24T00:10:42;0.80;;;0.80;;
18383;SDS011;9318;48.644;9.456;2023-06-24T00:13:11;0.90;;;0.90;;
18383;SDS011;9318;48.644;9.456;2023-06-24T00:15:37;0.70;;;0.70;;
18383;SDS011;9318;48.644;9.456;2023-06-24T00:18:07;0.80;;;0.80;;
18383;SDS011;9318;48.644;9.456;2023-06-24T00:20:34;0.77;;;0.77;;
18383;SDS011;9318;48.644;9.456;2023-06-24T00:23:01;0.80;;;0.80;;
18383;SDS011;9318;48.644;9.456;2023-06-24T00:25:28;0.80;;;0.80;;
18383;SDS011;9318;48.644;9.456;2023-06-24T00:27:55;0.90;;;0.90;;
18383;SDS011;9318;48.644;9.456;2023-06-24T00:30:25;0.80;;;0.80;;
18383;SDS011;9318;48.644;9.456;2023-06-24T00:32:52;0.80;;;0.80;;
18383;SDS011;9318;48.644;9.456;2023-06-24T00:35:19;0.80;;;0.80;;
18383;SDS011;9318;48.644;9.456;2023-06-24T00:37:46;0.87;;;0.87;;
18383;SDS011;9318;48.644;9.456;2023-06-24T00:40:14;0.87;;;0.87;;
18383;SDS011;9318;48.644;9.456;2023-06-24T00:42:43;0.90;;;0.90;;
18383;SDS011;9318;48.644;9.456;2023-06-24T00:45:11;0.90;;;0.90;;
18383;SDS011;9318;48.644;9.456;2023-06-24T00:47:39;0.90;;;0.90;;
18383;SDS011;9318;48.644;9.456;2023-06-24T00:50:07;1.00;;;1.00;;
18383;SDS011;9318;48.644;9.456;2023-06-24T00:52:37;0.90;;;0.90;;
18383;SDS011;9318;48.644;9.456;2023-06-24T00:55:07;0.80;;;0.80;;
18383;SDS011;9318;48.644;9.456;2023-06-24T00:57:34;0.80;;;0.80;;
18383;SDS011;9318;48.644;9.456;2023-06-24T01:00:03;0.90;;;0.90;;
18383;SDS011;9318;48.644;9.456;2023-06-24T01:02:34;0.80;;;0.80;;
18383;SDS011;9318;48.644;9.456;2023-06-24T01:05:03;1.00;;;1.00;;
18383;SDS011;9318;48.644;9.456;2023-06-24T01:10:02;0.80;;;0.80;;
18383;SDS011;9318;48.644;9.456;2023-06-24T01:12:30;0.90;;;0.90;;
18383;SDS011;9318;48.644;9.456;2023-06-24T01:14:57;0.90;;;0.90;;
18383;SDS011;9318;48.644;9.456;2023-06-24T01:17:24;1.00;;;1.00;;
18383;SDS011;9318;48.644;9.456;2023-06-24T01:19:59;0.90;;;0.90;;
18383;SDS011;9318;48.644;9.456;2023-06-24T01:22:41;0.80;;;0.80;;
18383;SDS011;9318;48.644;9.456;2023-06-24T01:25:32;0.80;;;0.80;;
18383;SDS011;9318;48.644;9.456;2023-06-24T01:28:10;0.90;;;0.90;;
18383;SDS011;9318;48.644;9.456;2023-06-24T01:31:00;0.87;;;0.87;;
18383;SDS011;9318;48.644;9.456;2023-06-24T01:33:46;0.80;;;0.80;;
18383;SDS011;9318;48.644;9.456;2023-06-24T01:36:18;0.90;;;0.90;;
18383;SDS011;9318;48.644;9.456;2023-06-24T01:38:50;0.90;;;0.90;;
18383;SDS011;9318;48.644;9.456;2023-06-24T01:41:21;0.90;;;0.90;;
18383;SDS011;9318;48.644;9.456;2023-06-24T01:43:50;0.90;;;0.90;;
18383;SDS011;9318;48.644;9.456;2023-06-24T01:46:21;0.87;;;0.87;;
18383;SDS011;9318;48.644;9.456;2023-06-24T01:48:48;0.90;;;0.90;;
18383;SDS011;9318;48.644;9.456;2023-06-24T01:51:20;0.80;;;0.80;;
18383;SDS011;9318;48.644;9.456;2023-06-24T01:53:48;0.90;;;0.90;;
18383;SDS011;9318;48.644;9.456;2023-06-24T01:56:17;1.00;;;1.00;;
18383;SDS011;9318;48.644;9.456;2023-06-24T01:58:47;0.90;;;0.90;;
18383;SDS011;9318;48.644;9.456;2023-06-24T02:01:17;0.90;;;0.90;;
18383;SDS011;9318;48.644;9.456;2023-06-24T02:03:46;1.10;;;1.10;;
18383;SDS011;9318;48.644;9.456;2023-06-24T02:06:15;0.90;;;0.90;;
18383;SDS011;9318;48.644;9.456;2023-06-24T02:08:44;0.90;;;0.90;;
18383;SDS011;9318;48.644;9.456;2023-06-24T02:11:14;1.00;;;1.00;;
18383;SDS011;9318;48.644;9.456;2023-06-24T02:13:43;1.00;;;1.00;;
18383;SDS011;9318;48.644;9.456;2023-06-24T02:16:11;0.90;;;0.90;;
18383;SDS011;9318;48.644;9.456;2023-06-24T02:18:39;0.90;;;0.90;;
18383;SDS011;9318;48.644;9.456;2023-06-24T02:21:09;0.80;;;0.80;;
18383;SDS011;9318;48.644;9.456;2023-06-24T02:23:36;1.00;;;1.00;;
18383;SDS011;9318;48.644;9.456;2023-06-24T02:26:03;1.00;;;1.00;;
18383;SDS011;9318;48.644;9.456;2023-06-24T02:28:32;0.97;;;0.97;;
18383;SDS011;9318;48.644;9.456;2023-06-24T02:30:59;1.00;;;1.00;;
18383;SDS011;9318;48.644;9.456;2023-06-24T02:33:27;1.00;;;1.00;;
18383;SDS011;9318;48.644;9.456;2023-06-24T02:35:54;0.90;;;0.90;;
18383;SDS011;9318;48.644;9.456;2023-06-24T02:38:22;0.90;;;0.90;;
18383;SDS011;9318;48.644;9.456;2023-06-24T02:40:49;0.90;;;0.90;;
18383;SDS011;9318;48.644;9.456;2023-06-24T02:43:16;0.90;;;0.90;;
18383;SDS011;9318;48.644;9.456;2023-06-24T02:45:43;1.00;;;1.00;;
18383;SDS011;9318;48.644;9.456;2023-06-24T02:48:11;1.00;;;1.00;;
18383;SDS011;9318;48.644;9.456;2023-06-24T02:50:39;1.00;;;1.00;;
18383;SDS011;9318;48.644;9.456;2023-06-24T02:53:08;1.00;;;1.00;;
18383;SDS011;9318;48.644;9.456;2023-06-24T02:55:38;1.00;;;1.00;;
18383;SDS011;9318;48.644;9.456;2023-06-24T02:58:07;1.00;;;1.00;;
18383;SDS011;9318;48.644;9.456;2023-06-24T03:00:36;0.90;;;0.90;;
18383;SDS011;9318;48.644;9.456;2023-06-24T03:03:03;1.00;;;1.00;;
18383;SDS011;9318;48.644;9.456;2023-06-24T03:05:32;1.00;;;1.00;;
18383;SDS011;9318;48.644;9.456;2023-06-24T03:07:59;0.90;;;0.90;;
18383;SDS011;9318;48.644;9.456;2023-06-24T03:10:28;0.93;;;0.93;;
18383;SDS011;9318;48.644;9.456;2023-06-24T03:12:56;0.90;;;0.90;;
18383;SDS011;9318;48.644;9.456;2023-06-24T03:15:23;1.00;;;1.00;;
18383;SDS011;9318;48.644;9.456;2023-06-24T03:17:50;1.00;;;1.00;;
18383;SDS011;9318;48.644;9.456;2023-06-24T03:20:17;1.00;;;1.00;;
18383;SDS011;9318;48.644;9.456;2023-06-24T03:22:45;1.10;;;1.10;;
18383;SDS011;9318;48.644;9.456;2023-06-24T03:25:12;0.90;;;0.90;;
18383;SDS011;9318;48.644;9.456;2023-06-24T03:27:38;1.00;;;1.00;;
18383;SDS011;9318;48.644;9.456;2023-06-24T03:30:07;1.00;;;1.00;;
18383;SDS011;9318;48.644;9.456;2023-06-24T03:32:37;0.90;;;0.90;;
18383;SDS011;9318;48.644;9.456;2023-06-24T03:35:04;1.07;;;1.07;;
18383;SDS011;9318;48.644;9.456;2023-06-24T03:37:32;1.00;;;1.00;;
18383;SDS011;9318;48.644;9.456;2023-06-24T03:39:58;1.07;;;1.07;;
18383;SDS011;9318;48.644;9.456;2023-06-24T03:42:25;1.00;;;1.00;;
18383;SDS011;9318;48.644;9.456;2023-06-24T03:44:53;0.93;;;0.93;;
18383;SDS011;9318;48.644;9.456;2023-06-24T03:47:21;1.00;;;1.00;;
18383;SDS011;9318;48.644;9.456;2023-06-24T03:49:48;1.00;;;1.00;;
18383;SDS011;9318;48.644;9.456;2023-06-24T03:52:16;1.00;;;1.00;;
18383;SDS011;9318;48.644;9.456;2023-06-24T03:54:43;1.00;;;1.00;;
18383;SDS011;9318;48.644;9.456;2023-06-24T03:57:10;1.00;;;1.00;;
18383;SDS011;9318;48.644;9.456;2023-06-24T03:59:36;1.00;;;1.00;;
18383;SDS011;9318;48.644;9.456;2023-06-24T04:02:04;1.00;;;1.00;;
18383;SDS011;9318;48.644;9.456;2023-06-24T04:04:34;0.90;;;0.90;;
18383;SDS011;9318;48.644;9.456;2023-06-24T04:07:01;1.00;;;1.00;;
18383;SDS011;9318;48.644;9.456;2023-06-24T04:09:28;1.00;;;1.00;;
18383;SDS011;9318;48.644;9.456;2023-06-24T04:11:56;1.00;;;1.00;;
18383;SDS011;9318;48.644;9.456;2023-06-24T04:14:22;0.93;;;0.93;;
18383;SDS011;9318;48.644;9.456;2023-06-24T04:16:49;1.03;;;1.03;;
18383;SDS011;9318;48.644;9.456;2023-06-24T04:19:16;0.90;;;0.90;;
18383;SDS011;9318;48.644;9.456;2023-06-24T04:21:44;1.00;;;1.00;;
18383;SDS011;9318;48.644;9.456;2023-06-24T04:24:11;0.90;;;0.90;;
18383;SDS011;9318;48.644;9.456;2023-06-24T04:26:37;0.90;;;0.90;;
18383;SDS011;9318;48.644;9.456;2023-06-24T04:29:04;0.90;;;0.90;;
18383;SDS011;9318;48.644;9.456;2023-06-24T04:31:31;0.90;;;0.90;;
18383;SDS011;9318;48.644;9.456;2023-06-24T04:33:58;0.93;;;0.93;;
18383;SDS011;9318;48.644;9.456;2023-06-24T04:36:24;0.90;;;0.90;;
18383;SDS011;9318;48.644;9.456;2023-06-24T04:38:52;1.00;;;1.00;;
18383;SDS011;9318;48.644;9.456;2023-06-24T04:41:19;1.00;;;1.00;;
18383;SDS011;9318;48.644;9.456;2023-06-24T04:43:46;0.90;;;0.90;;
18383;SDS011;9318;48.644;9.456;2023-06-24T04:46:13;0.87;;;0.87;;
18383;SDS011;9318;48.644;9.456;2023-06-24T04:48:39;0.87;;;0.87;;
18383;SDS011;9318;48.644;9.456;2023-06-24T04:51:06;0.80;;;0.80;;
18383;SDS011;9318;48.644;9.456;2023-06-24T04:53:33;0.70;;;0.70;;
18383;SDS011;9318;48.644;9.456;2023-06-24T04:56:01;0.80;;;0.80;;
18383;SDS011;9318;48.644;9.456;2023-06-24T04:58:28;0.80;;;0.80;;
18383;SDS011;9318;48.644;9.456;2023-06-24T05:00:55;0.80;;;0.80;;
18383;SDS011;9318;48.644;9.456;2023-06-24T05:03:21;0.80;;;0.80;;
18383;SDS011;9318;48.644;9.456;2023-06-24T05:05:48;0.60;;;0.60;;
18383;SDS011;9318;48.644;9.456;2023-06-24T05:08:15;0.70;;;0.70;;
18383;SDS011;9318;48.644;9.456;2023-06-24T05:10:42;0.80;;;0.80;;
18383;SDS011;9318;48.644;9.456;2023-06-24T05:13:10;0.80;;;0.80;;
18383;SDS011;9318;48.644;9.456;2023-06-24T05:15:36;0.70;;;0.70;;
18383;SDS011;9318;48.644;9.456;2023-06-24T05:18:03;0.70;;;0.70;;
18383;SDS011;9318;48.644;9.456;2023-06-24T05:20:30;0.70;;;0.70;;
18383;SDS011;9318;48.644;9.456;2023-06-24T05:22:57;0.60;;;0.60;;
18383;SDS011;9318;48.644;9.456;2023-06-24T05:25:23;0.70;;;0.70;;
18383;SDS011;9318;48.644;9.456;2023-06-24T05:27:50;0.63;;;0.63;;
18383;SDS011;9318;48.644;9.456;2023-06-24T05:30:18;0.70;;;0.70;;
18383;SDS011;9318;48.644;9.456;2023-06-24T05:32:45;0.60;;;0.60;;
18383;SDS011;9318;48.644;9.456;2023-06-24T05:35:12;0.60;;;0.60;;
18383;SDS011;9318;48.644;9.456;2023-06-24T05:37:38;0.60;;;0.60;;
18383;SDS011;9318;48.644;9.456;2023-06-24T05:40:06;0.60;;;0.60;;
18383;SDS011;9318;48.644;9.456;2023-06-24T05:42:34;0.50;;;0.50;;
18383;SDS011;9318;48.644;9.456;2023-06-24T05:45:01;0.70;;;0.70;;
18383;SDS011;9318;48.644;9.456;2023-06-24T05:47:29;0.60;;;0.60;;
18383;SDS011;9318;48.644;9.456;2023-06-24T05:49:56;0.60;;;0.60;;
18383;SDS011;9318;48.644;9.456;2023-06-24T05:52:23;0.60;;;0.60;;
18383;SDS011;9318;48.644;9.456;2023-06-24T05:54:50;0.50;;;0.50;;
18383;SDS011;9318;48.644;9.456;2023-06-24T05:57:16;0.60;;;0.60;;
18383;SDS011;9318;48.644;9.456;2023-06-24T05:59:43;0.60;;;0.60;;
18383;SDS011;9318;48.644;9.456;2023-06-24T06:02:10;0.50;;;0.50;;
18383;SDS011;9318;48.644;9.456;2023-06-24T06:04:39;0.50;;;0.50;;
18383;SDS011;9318;48.644;9.456;2023-06-24T06:07:06;0.50;;;0.50;;
18383;SDS011;9318;48.644;9.456;2023-06-24T06:09:32;0.40;;;0.40;;
18383;SDS011;9318;48.644;9.456;2023-06-24T06:11:59;0.50;;;0.50;;
18383;SDS011;9318;48.644;9.456;2023-06-24T06:14:26;0.50;;;0.50;;
18383;SDS011;9318;48.644;9.456;2023-06-24T06:16:53;0.40;;;0.40;;
18383;SDS011;9318;48.644;9.456;2023-06-24T06:19:19;0.52;;;0.52;;
18383;SDS011;9318;48.644;9.456;2023-06-24T06:21:47;0.43;;;0.43;;
18383;SDS011;9318;48.644;9.456;2023-06-24T06:24:15;0.47;;;0.47;;
18383;SDS011;9318;48.644;9.456;2023-06-24T06:26:42;0.40;;;0.40;;
18383;SDS011;9318;48.644;9.456;2023-06-24T06:29:09;0.40;;;0.40;;
18383;SDS011;9318;48.644;9.456;2023-06-24T06:31:36;0.40;;;0.40;;
18383;SDS011;9318;48.644;9.456;2023-06-24T06:34:03;0.30;;;0.30;;
18383;SDS011;9318;48.644;9.456;2023-06-24T06:36:29;0.40;;;0.40;;
18383;SDS011;9318;48.644;9.456;2023-06-24T06:38:57;0.40;;;0.40;;
18383;SDS011;9318;48.644;9.456;2023-06-24T06:41:24;0.40;;;0.40;;
18383;SDS011;9318;48.644;9.456;2023-06-24T06:43:51;0.40;;;0.40;;
18383;SDS011;9318;48.644;9.456;2023-06-24T06:46:18;0.40;;;0.40;;
18383;SDS011;9318;48.644;9.456;2023-06-24T06:48:45;0.47;;;0.47;;
18383;SDS011;9318;48.644;9.456;2023-06-24T06:51:12;0.30;;;0.30;;
18383;SDS011;9318;48.644;9.456;2023-06-24T06:53:39;0.40;;;0.40;;
18383;SDS011;9318;48.644;9.456;2023-06-24T06:56:07;0.40;;;0.40;;
18383;SDS011;9318;48.644;9.456;2023-06-24T06:58:34;0.40;;;0.40;;
18383;SDS011;9318;48.644;9.456;2023-06-24T07:01:00;0.30;;;0.30;;
18383;SDS011;9318;48.644;9.456;2023-06-24T07:03:30;0.32;;;0.32;;
18383;SDS011;9318;48.644;9.456;2023-06-24T07:05:56;0.30;;;0.30;;
18383;SDS011;9318;48.644;9.456;2023-06-24T07:08:23;0.30;;;0.30;;
18383;SDS011;9318;48.644;9.456;2023-06-24T07:10:50;0.30;;;0.30;;
18383;SDS011;9318;48.644;9.456;2023-06-24T07:13:18;0.30;;;0.30;;
18383;SDS011;9318;48.644;9.456;2023-06-24T07:15:45;0.20;;;0.20;;
18383;SDS011;9318;48.644;9.456;2023-06-24T07:18:12;0.30;;;0.30;;
18383;SDS011;9318;48.644;9.456;2023-06-24T07:20:38;0.30;;;0.30;;
18383;SDS011;9318;48.644;9.456;2023-06-24T07:23:05;0.30;;;0.30;;
18383;SDS011;9318;48.644;9.456;2023-06-24T07:25:32;0.30;;;0.30;;
18383;SDS011;9318;48.644;9.456;2023-06-24T07:27:59;0.30;;;0.30;;
18383;SDS011;9318;48.644;9.456;2023-06-24T07:30:27;0.30;;;0.30;;
18383;SDS011;9318;48.644;9.456;2023-06-24T07:32:54;0.30;;;0.30;;
18383;SDS011;9318;48.644;9.456;2023-06-24T07:35:21;0.20;;;0.20;;
18383;SDS011;9318;48.644;9.456;2023-06-24T07:37:47;0.30;;;0.30;;
18383;SDS011;9318;48.644;9.456;2023-06-24T07:40:14;0.20;;;0.20;;
18383;SDS011;9318;48.644;9.456;2023-06-24T07:42:41;0.30;;;0.30;;
18383;SDS011;9318;48.644;9.456;2023-06-24T07:45:08;0.20;;;0.20;;
18383;SDS011;9318;48.644;9.456;2023-06-24T07:47:37;0.20;;;0.20;;
18383;SDS011;9318;48.644;9.456;2023-06-24T07:50:04;0.20;;;0.20;;
18383;SDS011;9318;48.644;9.456;2023-06-24T07:52:31;0.30;;;0.30;;
18383;SDS011;9318;48.644;9.456;2023-06-24T07:54:58;0.20;;;0.20;;
18383;SDS011;9318;48.644;9.456;2023-06-24T07:57:26;0.20;;;0.20;;
18383;SDS011;9318;48.644;9.456;2023-06-24T07:59:53;0.20;;;0.20;;
18383;SDS011;9318;48.644;9.456;2023-06-24T08:02:19;0.25;;;0.25;;
18383;SDS011;9318;48.644;9.456;2023-06-24T08:04:48;0.30;;;0.30;;
18383;SDS011;9318;48.644;9.456;2023-06-24T08:07:14;0.20;;;0.20;;
18383;SDS011;9318;48.644;9.456;2023-06-24T08:09:41;0.30;;;0.30;;
18383;SDS011;9318;48.644;9.456;2023-06-24T08:12:08;0.30;;;0.30;;
18383;SDS011;9318;48.644;9.456;2023-06-24T08:14:35;0.20;;;0.20;;
18383;SDS011;9318;48.644;9.456;2023-06-24T08:17:02;0.20;;;0.20;;
18383;SDS011;9318;48.644;9.456;2023-06-24T08:19:29;0.20;;;0.20;;
18383;SDS011;9318;48.644;9.456;2023-06-24T08:21:57;0.20;;;0.20;;
18383;SDS011;9318;48.644;9.456;2023-06-24T08:24:24;0.15;;;0.15;;
18383;SDS011;9318;48.644;9.456;2023-06-24T08:26:51;0.22;;;0.22;;
18383;SDS011;9318;48.644;9.456;2023-06-24T08:29:18;0.20;;;0.20;;
18383;SDS011;9318;48.644;9.456;2023-06-24T08:31:45;0.22;;;0.22;;
18383;SDS011;9318;48.644;9.456;2023-06-24T08:34:12;0.30;;;0.30;;
18383;SDS011;9318;48.644;9.456;2023-06-24T08:36:39;0.20;;;0.20;;
18383;SDS011;9318;48.644;9.456;2023-06-24T08:39:07;0.20;;;0.20;;
18383;SDS011;9318;48.644;9.456;2023-06-24T08:41:34;0.20;;;0.20;;
18383;SDS011;9318;48.644;9.456;2023-06-24T08:44:00;0.20;;;0.20;;
18383;SDS011;9318;48.644;9.456;2023-06-24T08:46:27;0.20;;;0.20;;
18383;SDS011;9318;48.644;9.456;2023-06-24T08:48:58;0.30;;;0.30;;
18383;SDS011;9318;48.644;9.456;2023-06-24T08:51:29;0.25;;;0.25;;
18383;SDS011;9318;48.644;9.456;2023-06-24T08:53:59;0.30;;;0.30;;
18383;SDS011;9318;48.644;9.456;2023-06-24T08:56:28;0.22;;;0.22;;
18383;SDS011;9318;48.644;9.456;2023-06-24T08:58:55;0.30;;;0.30;;
18383;SDS011;9318;48.644;9.456;2023-06-24T09:01:22;0.30;;;0.30;;
18383;SDS011;9318;48.644;9.456;2023-06-24T09:03:48;0.40;;;0.40;;
18383;SDS011;9318;48.644;9.456;2023-06-24T09:06:15;0.40;;;0.40;;
18383;SDS011;9318;48.644;9.456;2023-06-24T09:08:51;0.35;;;0.35;;
18383;SDS011;9318;48.644;9.456;2023-06-24T09:11:21;0.30;;;0.30;;
18383;SDS011;9318;48.644;9.456;2023-06-24T09:13:50;0.30;;;0.30;;
18383;SDS011;9318;48.644;9.456;2023-06-24T09:16:21;0.40;;;0.40;;
18383;SDS011;9318;48.644;9.456;2023-06-24T09:18:48;0.40;;;0.40;;
18383;SDS011;9318;48.644;9.456;2023-06-24T09:21:21;0.40;;;0.40;;
18383;SDS011;9318;48.644;9.456;2023-06-24T09:23:50;0.40;;;0.40;;
18383;SDS011;9318;48.644;9.456;2023-06-24T09:26:18;0.40;;;0.40;;
18383;SDS011;9318;48.644;9.456;2023-06-24T09:28:47;0.40;;;0.40;;
18383;SDS011;9318;48.644;9.456;2023-06-24T09:31:15;0.40;;;0.40;;
18383;SDS011;9318;48.644;9.456;2023-06-24T09:33:43;0.38;;;0.38;;
18383;SDS011;9318;48.644;9.456;2023-06-24T09:36:11;0.40;;;0.40;;
18383;SDS011;9318;48.644;9.456;2023-06-24T09:38:39;0.40;;;0.40;;
18383;SDS011;9318;48.644;9.456;2023-06-24T09:41:07;0.40;;;0.40;;
18383;SDS011;9318;48.644;9.456;2023-06-24T09:43:35;0.38;;;0.38;;
18383;SDS011;9318;48.644;9.456;2023-06-24T09:46:02;0.30;;;0.30;;
18383;SDS011;9318;48.644;9.456;2023-06-24T09:48:30;0.40;;;0.40;;
18383;SDS011;9318;48.644;9.456;2023-06-24T09:50:59;0.40;;;0.40;;
18383;SDS011;9318;48.644;9.456;2023-06-24T09:53:28;0.40;;;0.40;;
18383;SDS011;9318;48.644;9.456;2023-06-24T09:55:57;0.40;;;0.40;;
18383;SDS011;9318;48.644;9.456;2023-06-24T09:58:25;0.40;;;0.40;;
18383;SDS011;9318;48.644;9.456;2023-06-24T10:00:52;0.40;;;0.40;;
18383;SDS011;9318;48.644;9.456;2023-06-24T10:03:21;0.30;;;0.30;;
18383;SDS011;9318;48.644;9.456;2023-06-24T10:05:49;0.30;;;0.30;;
18383;SDS011;9318;48.644;9.456;2023-06-24T10:08:16;0.40;;;0.40;;
18383;SDS011;9318;48.644;9.456;2023-06-24T10:10:43;0.30;;;0.30;;
18383;SDS011;9318;48.644;9.456;2023-06-24T10:13:10;0.40;;;0.40;;
18383;SDS011;9318;48.644;9.456;2023-06-24T10:15:37;0.40;;;0.40;;
18383;SDS011;9318;48.644;9.456;2023-06-24T10:18:10;0.40;;;0.40;;
18383;SDS011;9318;48.644;9.456;2023-06-24T10:21:02;0.40;;;0.40;;
18383;SDS011;9318;48.644;9.456;2023-06-24T10:23:30;0.40;;;0.40;;
18383;SDS011;9318;48.644;9.456;2023-06-24T10:25:57;0.35;;;0.35;;
18383;SDS011;9318;48.644;9.456;2023-06-24T10:28:24;0.40;;;0.40;;
18383;SDS011;9318;48.644;9.456;2023-06-24T10:30:54;0.40;;;0.40;;
18383;SDS011;9318;48.644;9.456;2023-06-24T10:33:22;0.50;;;0.50;;
18383;SDS011;9318;48.644;9.456;2023-06-24T10:35:50;0.40;;;0.40;;
18383;SDS011;9318;48.644;9.456;2023-06-24T10:38:19;0.40;;;0.40;;
18383;SDS011;9318;48.644;9.456;2023-06-24T10:40:46;0.40;;;0.40;;
18383;SDS011;9318;48.644;9.456;2023-06-24T10:43:27;0.40;;;0.40;;
18383;SDS011;9318;48.644;9.456;2023-06-24T10:45:56;0.40;;;0.40;;
18383;SDS011;9318;48.644;9.456;2023-06-24T10:48:23;0.30;;;0.30;;
18383;SDS011;9318;48.644;9.456;2023-06-24T10:50:50;0.30;;;0.30;;
18383;SDS011;9318;48.644;9.456;2023-06-24T10:53:18;0.40;;;0.40;;
18383;SDS011;9318;48.644;9.456;2023-06-24T10:55:47;0.40;;;0.40;;
18383;SDS011;9318;48.644;9.456;2023-06-24T10:58:14;0.30;;;0.30;;
18383;SDS011;9318;48.644;9.456;2023-06-24T11:00:41;0.32;;;0.32;;
18383;SDS011;9318;48.644;9.456;2023-06-24T11:03:11;0.40;;;0.40;;
18383;SDS011;9318;48.644;9.456;2023-06-24T11:05:39;0.40;;;0.40;;
18383;SDS011;9318;48.644;9.456;2023-06-24T11:08:06;0.40;;;0.40;;
18383;SDS011;9318;48.644;9.456;2023-06-24T11:10:34;0.40;;;0.40;;
18383;SDS011;9318;48.644;9.456;2023-06-24T11:13:08;0.40;;;0.40;;
18383;SDS011;9318;48.644;9.456;2023-06-24T11:15:35;0.30;;;0.30;;
18383;SDS011;9318;48.644;9.456;2023-06-24T11:18:02;0.32;;;0.32;;
18383;SDS011;9318;48.644;9.456;2023-06-24T11:20:30;0.30;;;0.30;;
18383;SDS011;9318;48.644;9.456;2023-06-24T11:22:56;0.40;;;0.40;;
18383;SDS011;9318;48.644;9.456;2023-06-24T11:25:23;0.40;;;0.40;;
18383;SDS011;9318;48.644;9.456;2023-06-24T11:27:51;0.30;;;0.30;;
18383;SDS011;9318;48.644;9.456;2023-06-24T11:30:19;0.30;;;0.30;;
18383;SDS011;9318;48.644;9.456;2023-06-24T11:32:46;0.40;;;0.40;;
18383;SDS011;9318;48.644;9.456;2023-06-24T11:35:15;0.30;;;0.30;;
18383;SDS011;9318;48.644;9.456;2023-06-24T11:37:42;0.40;;;0.40;;
18383;SDS011;9318;48.644;9.456;2023-06-24T11:40:10;0.30;;;0.30;;
18383;SDS011;9318;48.644;9.456;2023-06-24T11:42:38;0.40;;;0.40;;
18383;SDS011;9318;48.644;9.456;2023-06-24T11:45:09;0.40;;;0.40;;
18383;SDS011;9318;48.644;9.456;2023-06-24T11:47:38;0.30;;;0.30;;
18383;SDS011;9318;48.644;9.456;2023-06-24T11:50:05;0.30;;;0.30;;
18383;SDS011;9318;48.644;9.456;2023-06-24T11:52:43;0.40;;;0.40;;
18383;SDS011;9318;48.644;9.456;2023-06-24T11:55:16;0.30;;;0.30;;
18383;SDS011;9318;48.644;9.456;2023-06-24T11:57:46;0.30;;;0.30;;
18383;SDS011;9318;48.644;9.456;2023-06-24T12:00:18;0.40;;;0.40;;
18383;SDS011;9318;48.644;9.456;2023-06-24T12:02:48;0.40;;;0.40;;
18383;SDS011;9318;48.644;9.456;2023-06-24T12:05:19;0.32;;;0.32;;
18383;SDS011;9318;48.644;9.456;2023-06-24T12:07:51;0.40;;;0.40;;
18383;SDS011;9318;48.644;9.456;2023-06-24T12:10:19;0.40;;;0.40;;
18383;SDS011;9318;48.644;9.456;2023-06-24T12:12:46;0.30;;;0.30;;
18383;SDS011;9318;48.644;9.456;2023-06-24T12:15:13;0.40;;;0.40;;
18383;SDS011;9318;48.644;9.456;2023-06-24T12:17:41;0.40;;;0.40;;
18383;SDS011;9318;48.644;9.456;2023-06-24T12:20:08;0.30;;;0.30;;
18383;SDS011;9318;48.644;9.456;2023-06-24T12:22:35;0.30;;;0.30;;
18383;SDS011;9318;48.644;9.456;2023-06-24T12:25:03;0.30;;;0.30;;
18383;SDS011;9318;48.644;9.456;2023-06-24T12:27:30;0.30;;;0.30;;
18383;SDS011;9318;48.644;9.456;2023-06-24T12:29:56;0.40;;;0.40;;
18383;SDS011;9318;48.644;9.456;2023-06-24T12:32:23;0.40;;;0.40;;
18383;SDS011;9318;48.644;9.456;2023-06-24T12:34:51;0.47;;;0.47;;
18383;SDS011;9318;48.644;9.456;2023-06-24T12:37:18;0.40;;;0.40;;
18383;SDS011;9318;48.644;9.456;2023-06-24T12:39:45;0.40;;;0.40;;
18383;SDS011;9318;48.644;9.456;2023-06-24T12:42:12;0.40;;;0.40;;
18383;SDS011;9318;48.644;9.456;2023-06-24T12:44:38;0.40;;;0.40;;
18383;SDS011;9318;48.644;9.456;2023-06-24T12:47:05;0.32;;;0.32;;
18383;SDS011;9318;48.644;9.456;2023-06-24T12:49:32;0.30;;;0.30;;
18383;SDS011;9318;48.644;9.456;2023-06-24T12:52:00;0.40;;;0.40;;
18383;SDS011;9318;48.644;9.456;2023-06-24T12:54:28;0.40;;;0.40;;
18383;SDS011;9318;48.644;9.456;2023-06-24T12:56:54;0.40;;;0.40;;
18383;SDS011;9318;48.644;9.456;2023-06-24T12:59:22;0.35;;;0.35;;
18383;SDS011;9318;48.644;9.456;2023-06-24T13:01:49;0.32;;;0.32;;
18383;SDS011;9318;48.644;9.456;2023-06-24T13:04:16;0.30;;;0.30;;
18383;SDS011;9318;48.644;9.456;2023-06-24T13:06:45;0.40;;;0.40;;
18383;SDS011;9318;48.644;9.456;2023-06-24T13:09:13;0.30;;;0.30;;
18383;SDS011;9318;48.644;9.456;2023-06-24T13:11:40;0.30;;;0.30;;
18383;SDS011;9318;48.644;9.456;2023-06-24T13:14:06;0.28;;;0.28;;
18383;SDS011;9318;48.644;9.456;2023-06-24T13:16:34;0.40;;;0.40;;
18383;SDS011;9318;48.644;9.456;2023-06-24T13:19:01;0.30;;;0.30;;
18383;SDS011;9318;48.644;9.456;2023-06-24T13:21:28;0.30;;;0.30;;
18383;SDS011;9318;48.644;9.456;2023-06-24T13:23:55;0.30;;;0.30;;
18383;SDS011;9318;48.644;9.456;2023-06-24T13:26:23;0.40;;;0.40;;
18383;SDS011;9318;48.644;9.456;2023-06-24T13:28:50;0.40;;;0.40;;
18383;SDS011;9318;48.644;9.456;2023-06-24T13:31:17;0.30;;;0.30;;
18383;SDS011;9318;48.644;9.456;2023-06-24T13:33:45;0.40;;;0.40;;
18383;SDS011;9318;48.644;9.456;2023-06-24T13:36:25;0.40;;;0.40;;
18383;SDS011;9318;48.644;9.456;2023-06-24T13:38:56;0.40;;;0.40;;
18383;SDS011;9318;48.644;9.456;2023-06-24T13:41:24;0.40;;;0.40;;
18383;SDS011;9318;48.644;9.456;2023-06-24T13:43:54;0.43;;;0.43;;
18383;SDS011;9318;48.644;9.456;2023-06-24T13:46:21;0.40;;;0.40;;
18383;SDS011;9318;48.644;9.456;2023-06-24T13:48:48;0.40;;;0.40;;
18383;SDS011;9318;48.644;9.456;2023-06-24T13:51:15;0.40;;;0.40;;
18383;SDS011;9318;48.644;9.456;2023-06-24T13:53:42;0.38;;;0.38;;
18383;SDS011;9318;48.644;9.456;2023-06-24T13:56:09;0.40;;;0.40;;
18383;SDS011;9318;48.644;9.456;2023-06-24T13:58:37;0.40;;;0.40;;
18383;SDS011;9318;48.644;9.456;2023-06-24T14:01:03;0.40;;;0.40;;
18383;SDS011;9318;48.644;9.456;2023-06-24T14:03:30;0.40;;;0.40;;
18383;SDS011;9318;48.644;9.456;2023-06-24T14:05:57;0.40;;;0.40;;
18383;SDS011;9318;48.644;9.456;2023-06-24T14:08:26;0.40;;;0.40;;
18383;SDS011;9318;48.644;9.456;2023-06-24T14:10:53;0.47;;;0.47;;
18383;SDS011;9318;48.644;9.456;2023-06-24T14:13:20;0.30;;;0.30;;
18383;SDS011;9318;48.644;9.456;2023-06-24T14:15:48;0.30;;;0.30;;
18383;SDS011;9318;48.644;9.456;2023-06-24T14:18:15;0.30;;;0.30;;
18383;SDS011;9318;48.644;9.456;2023-06-24T14:20:42;0.38;;;0.38;;
18383;SDS011;9318;48.644;9.456;2023-06-24T14:23:09;0.30;;;0.30;;
18383;SDS011;9318;48.644;9.456;2023-06-24T14:25:35;0.40;;;0.40;;
18383;SDS011;9318;48.644;9.456;2023-06-24T14:28:02;0.30;;;0.30;;
18383;SDS011;9318;48.644;9.456;2023-06-24T14:30:29;0.40;;;0.40;;
18383;SDS011;9318;48.644;9.456;2023-06-24T14:32:57;0.30;;;0.30;;
18383;SDS011;9318;48.644;9.456;2023-06-24T14:35:24;0.40;;;0.40;;
18383;SDS011;9318;48.644;9.456;2023-06-24T14:37:51;0.40;;;0.40;;
18383;SDS011;9318;48.644;9.456;2023-06-24T14:40:18;0.40;;;0.40;;
18383;SDS011;9318;48.644;9.456;2023-06-24T14:42:45;0.40;;;0.40;;
18383;SDS011;9318;48.644;9.456;2023-06-24T14:45:11;0.40;;;0.40;;
18383;SDS011;9318;48.644;9.456;2023-06-24T14:47:38;0.40;;;0.40;;
18383;SDS011;9318;48.644;9.456;2023-06-24T14:50:07;0.40;;;0.40;;
18383;SDS011;9318;48.644;9.456;2023-06-24T14:52:34;0.40;;;0.40;;
18383;SDS011;9318;48.644;9.456;2023-06-24T14:55:01;0.40;;;0.40;;
18383;SDS011;9318;48.644;9.456;2023-06-24T14:57:28;0.32;;;0.32;;
18383;SDS011;9318;48.644;9.456;2023-06-24T14:59:54;0.40;;;0.40;;
18383;SDS011;9318;48.644;9.456;2023-06-24T15:02:21;0.38;;;0.38;;
18383;SDS011;9318;48.644;9.456;2023-06-24T15:04:49;0.40;;;0.40;;
18383;SDS011;9318;48.644;9.456;2023-06-24T15:07:17;0.40;;;0.40;;